createdAt,value
2019-01-13T00:00:40.303Z,11.90
2019-01-13T00:03:09.255Z,11.80
2019-01-13T00:05:37.880Z,11.70
2019-01-13T00:08:06.463Z,11.80
2019-01-13T00:10:35.376Z,11.90
2019-01-13T00:13:04.007Z,11.90
2019-01-13T00:15:32.852Z,11.90
2019-01-13T00:18:01.796Z,11.80
2019-01-13T00:20:30.495Z,11.90
2019-01-13T00:22:59.163Z,11.80
2019-01-13T00:25:29.214Z,11.90
2019-01-13T00:27:58.077Z,11.90
2019-01-13T00:30:26.996Z,11.90
2019-01-13T00:32:55.619Z,12.70
2019-01-13T00:35:24.247Z,13.10
2019-01-13T00:37:52.947Z,13.20
2019-01-13T00:40:21.605Z,13.40
2019-01-13T00:42:50.452Z,13.40
2019-01-13T00:45:19.173Z,13.50
2019-01-13T00:47:47.829Z,13.60
2019-01-13T00:50:16.442Z,13.70
2019-01-13T00:52:45.018Z,13.70
2019-01-13T00:55:14.128Z,13.70
2019-01-13T00:57:42.699Z,13.70
2019-01-13T01:00:14.691Z,13.70
2019-01-13T01:02:43.785Z,13.70
2019-01-13T01:05:12.459Z,13.70
2019-01-13T01:07:41.379Z,13.80
2019-01-13T01:10:11.863Z,13.80
2019-01-13T01:12:40.433Z,13.80
2019-01-13T01:15:10.420Z,13.90
2019-01-13T01:17:39.016Z,13.90
2019-01-13T01:20:09.299Z,13.80
2019-01-13T01:22:37.896Z,13.80
2019-01-13T01:25:07.569Z,13.90
2019-01-13T01:27:36.731Z,13.90
2019-01-13T01:30:09.300Z,13.90
2019-01-13T01:32:38.147Z,13.90
2019-01-13T01:35:07.191Z,13.90
2019-01-13T01:37:36.041Z,13.90
2019-01-13T01:40:08.256Z,13.90
2019-01-13T01:42:37.083Z,13.90
2019-01-13T01:45:06.796Z,13.80
2019-01-13T01:47:35.670Z,13.90
2019-01-13T01:50:05.297Z,13.90
2019-01-13T01:52:33.878Z,13.90
2019-01-13T01:55:02.491Z,13.90
2019-01-13T01:57:31.172Z,13.90
2019-01-13T02:00:00.035Z,13.90
2019-01-13T02:02:28.940Z,13.90
2019-01-13T02:05:01.744Z,13.90
2019-01-13T02:07:30.418Z,13.90
2019-01-13T02:10:00.326Z,13.90
2019-01-13T02:12:29.258Z,13.90
2019-01-13T02:14:58.150Z,13.90
2019-01-13T02:17:29.002Z,13.90
2019-01-13T02:19:57.616Z,13.90
2019-01-13T02:22:26.214Z,13.90
2019-01-13T02:24:54.942Z,13.90
2019-01-13T02:27:23.563Z,13.90
2019-01-13T02:29:52.232Z,13.80
2019-01-13T02:32:20.898Z,13.90
2019-01-13T02:34:49.495Z,13.90
2019-01-13T02:37:18.128Z,13.90
2019-01-13T02:39:47.055Z,14.00
2019-01-13T02:42:15.696Z,13.90
2019-01-13T02:44:44.550Z,13.90
2019-01-13T02:47:13.128Z,13.90
2019-01-13T02:49:41.699Z,13.90
2019-01-13T02:52:10.280Z,13.90
2019-01-13T02:54:39.118Z,13.90
2019-01-13T02:57:07.719Z,13.90
2019-01-13T02:59:36.334Z,13.90
2019-01-13T03:02:04.954Z,13.90
2019-01-13T03:04:33.554Z,13.90
2019-01-13T03:07:02.133Z,13.90
2019-01-13T03:09:30.727Z,13.90
2019-01-13T03:11:59.574Z,13.90
2019-01-13T03:14:28.239Z,13.90
2019-01-13T03:16:57.031Z,13.90
2019-01-13T03:19:25.869Z,13.90
2019-01-13T03:21:54.477Z,13.90
2019-01-13T03:24:23.094Z,13.90
2019-01-13T03:26:52.192Z,13.90
2019-01-13T03:29:20.966Z,13.90
2019-01-13T03:31:49.910Z,13.90
2019-01-13T03:34:18.487Z,14.00
2019-01-13T03:36:47.320Z,14.00
2019-01-13T03:39:16.173Z,14.00
2019-01-13T03:41:44.750Z,14.00
2019-01-13T03:44:13.303Z,13.90
2019-01-13T03:46:41.900Z,13.90
2019-01-13T03:49:10.737Z,13.90
2019-01-13T03:51:39.355Z,13.90
2019-01-13T03:54:07.911Z,13.90
2019-01-13T03:56:36.529Z,13.90
2019-01-13T03:59:05.133Z,13.90
2019-01-13T04:01:33.771Z,13.90
2019-01-13T04:04:02.358Z,14.00
2019-01-13T04:06:31.035Z,14.00
2019-01-13T04:08:59.629Z,13.90
2019-01-13T04:11:28.495Z,13.90
2019-01-13T04:13:57.111Z,14.00
2019-01-13T04:16:25.715Z,14.00
2019-01-13T04:18:54.549Z,14.00
2019-01-13T04:21:23.143Z,13.90
2019-01-13T04:23:52.038Z,13.90
2019-01-13T04:26:20.733Z,13.90
2019-01-13T04:28:49.304Z,14.00
2019-01-13T04:31:18.208Z,13.90
2019-01-13T04:33:46.790Z,13.90
2019-01-13T04:36:15.628Z,13.90
2019-01-13T04:38:44.458Z,14.00
2019-01-13T04:41:13.040Z,14.00
2019-01-13T04:43:41.699Z,13.90
2019-01-13T04:46:10.532Z,14.00
2019-01-13T04:48:39.081Z,14.00
2019-01-13T04:51:07.670Z,14.00
2019-01-13T04:53:36.242Z,14.00
2019-01-13T04:56:05.125Z,14.00
2019-01-13T04:58:33.684Z,14.00
2019-01-13T05:01:02.260Z,14.00
2019-01-13T05:03:30.817Z,14.00
2019-01-13T05:05:59.647Z,14.00
2019-01-13T05:08:28.444Z,13.90
2019-01-13T05:10:57.256Z,13.90
2019-01-13T05:13:25.845Z,13.90
2019-01-13T05:15:54.417Z,13.90
2019-01-13T05:18:22.999Z,13.90
2019-01-13T05:20:51.590Z,13.90
2019-01-13T05:23:20.693Z,13.90
2019-01-13T05:25:49.282Z,13.90
2019-01-13T05:28:17.889Z,14.00
2019-01-13T05:30:46.526Z,13.90
2019-01-13T05:33:15.633Z,13.90
2019-01-13T05:35:44.210Z,14.00
2019-01-13T05:38:12.874Z,13.90
2019-01-13T05:40:41.696Z,14.00
2019-01-13T05:43:10.314Z,14.00
2019-01-13T05:45:38.903Z,14.00
2019-01-13T05:48:07.550Z,13.90
2019-01-13T05:50:36.355Z,13.90
2019-01-13T05:53:05.139Z,13.90
2019-01-13T05:55:34.110Z,13.90
2019-01-13T05:58:02.704Z,13.90
2019-01-13T06:00:38.769Z,13.90
2019-01-13T06:03:07.599Z,13.90
2019-01-13T06:05:36.249Z,13.90
2019-01-13T06:08:04.819Z,13.90
2019-01-13T06:10:33.446Z,13.90
2019-01-13T06:13:04.887Z,13.90
2019-01-13T06:15:33.447Z,13.90
2019-01-13T06:18:02.050Z,13.90
2019-01-13T06:20:30.870Z,13.90
2019-01-13T06:22:59.438Z,13.90
2019-01-13T06:25:28.497Z,13.90
2019-01-13T06:27:57.078Z,13.90
2019-01-13T06:30:25.729Z,13.90
2019-01-13T06:32:54.563Z,13.90
2019-01-13T06:35:23.370Z,13.90
2019-01-13T06:37:51.954Z,13.90
2019-01-13T06:40:21.724Z,13.90
2019-01-13T06:42:50.326Z,13.90
2019-01-13T06:45:21.051Z,13.90
2019-01-13T06:47:49.907Z,13.90
2019-01-13T06:50:18.546Z,13.90
2019-01-13T06:52:47.154Z,13.90
2019-01-13T06:55:15.989Z,13.80
2019-01-13T06:57:44.574Z,13.90
2019-01-13T07:00:16.435Z,13.90
2019-01-13T07:02:45.286Z,13.90
2019-01-13T07:05:13.871Z,13.90
2019-01-13T07:07:42.724Z,13.80
2019-01-13T07:10:11.359Z,13.90
2019-01-13T07:12:39.953Z,13.90
2019-01-13T07:15:11.498Z,13.90
2019-01-13T07:17:40.934Z,13.90
2019-01-13T07:20:11.815Z,13.90
2019-01-13T07:22:40.396Z,13.90
2019-01-13T07:25:09.207Z,13.80
2019-01-13T07:27:37.796Z,13.80
2019-01-13T07:30:19.378Z,13.90
2019-01-13T07:32:47.998Z,13.90
2019-01-13T07:35:16.575Z,13.90
2019-01-13T07:37:45.180Z,13.90
2019-01-13T07:40:21.383Z,13.90
2019-01-13T07:42:50.354Z,13.90
2019-01-13T07:45:20.987Z,13.90
2019-01-13T07:47:49.593Z,13.90
2019-01-13T07:50:18.535Z,13.90
2019-01-13T07:52:47.161Z,13.90
2019-01-13T07:55:17.560Z,13.90
2019-01-13T07:57:46.435Z,14.00
2019-01-13T08:00:17.650Z,14.00
2019-01-13T08:02:46.294Z,13.90
2019-01-13T08:05:14.876Z,14.00
2019-01-13T08:07:43.483Z,13.90
2019-01-13T08:10:15.131Z,13.90
2019-01-13T08:12:44.041Z,14.00
2019-01-13T08:15:14.848Z,14.00
2019-01-13T08:17:43.509Z,14.00
2019-01-13T08:20:23.732Z,14.00
2019-01-13T08:22:52.328Z,14.00
2019-01-13T08:25:20.891Z,14.00
2019-01-13T08:27:49.718Z,14.00
2019-01-13T08:30:18.813Z,14.00
2019-01-13T08:32:47.407Z,14.00
2019-01-13T08:35:15.998Z,14.10
2019-01-13T08:37:44.824Z,14.00
2019-01-13T08:40:15.455Z,14.10
2019-01-13T08:42:44.276Z,14.10
2019-01-13T08:45:12.892Z,14.10
2019-01-13T08:47:41.570Z,14.10
2019-01-13T08:50:19.443Z,14.00
2019-01-13T08:52:48.087Z,14.10
2019-01-13T08:55:16.853Z,14.10
2019-01-13T08:57:45.809Z,14.10
2019-01-13T09:00:20.387Z,14.10
2019-01-13T09:02:49.565Z,14.20
2019-01-13T09:05:18.149Z,14.20
2019-01-13T09:07:46.760Z,14.20
2019-01-13T09:10:16.108Z,14.20
2019-01-13T09:12:44.703Z,14.20
2019-01-13T09:15:15.592Z,14.20
2019-01-13T09:17:44.183Z,14.20
2019-01-13T09:20:15.586Z,14.30
2019-01-13T09:22:44.164Z,14.20
2019-01-13T09:25:13.291Z,14.30
2019-01-13T09:27:42.111Z,14.30
2019-01-13T09:30:13.946Z,14.30
2019-01-13T09:32:42.538Z,14.30
2019-01-13T09:35:11.146Z,14.30
2019-01-13T09:37:39.702Z,14.30
2019-01-13T09:40:09.517Z,14.30
2019-01-13T09:42:38.319Z,14.30
2019-01-13T09:45:08.819Z,14.30
2019-01-13T09:47:37.644Z,14.30
2019-01-13T09:50:07.898Z,14.40
2019-01-13T09:52:36.468Z,14.40
2019-01-13T09:55:05.777Z,14.40
2019-01-13T09:57:34.355Z,14.30
2019-01-13T10:00:03.230Z,14.40
2019-01-13T10:02:31.854Z,14.40
2019-01-13T10:05:00.483Z,14.40
2019-01-13T10:07:29.077Z,14.50
2019-01-13T10:09:57.664Z,14.50
2019-01-13T10:12:26.230Z,14.50
2019-01-13T10:14:54.843Z,14.50
2019-01-13T10:17:23.395Z,14.60
2019-01-13T10:19:52.015Z,14.50
2019-01-13T10:22:20.602Z,14.50
2019-01-13T10:24:49.217Z,14.60
2019-01-13T10:27:17.804Z,14.50
2019-01-13T10:29:46.390Z,14.50
2019-01-13T10:32:15.015Z,14.50
2019-01-13T10:34:43.660Z,14.50
2019-01-13T10:37:12.238Z,14.50
2019-01-13T10:39:40.846Z,14.50
2019-01-13T10:42:09.426Z,14.60
2019-01-13T10:44:38.347Z,14.60
2019-01-13T10:47:06.919Z,14.50
2019-01-13T10:49:35.515Z,14.60
2019-01-13T10:52:04.175Z,14.60
2019-01-13T10:54:32.790Z,14.60
2019-01-13T10:57:01.423Z,14.60
2019-01-13T10:59:30.399Z,14.60
2019-01-13T11:01:59.275Z,14.60
2019-01-13T11:04:27.888Z,14.60
2019-01-13T11:06:56.981Z,14.60
2019-01-13T11:09:25.914Z,14.60
2019-01-13T11:11:54.710Z,14.60
2019-01-13T11:14:23.600Z,14.70
2019-01-13T11:16:52.217Z,14.60
2019-01-13T11:19:20.874Z,14.60
2019-01-13T11:21:49.429Z,14.60
2019-01-13T11:24:18.320Z,14.60
2019-01-13T11:26:47.171Z,14.70
2019-01-13T11:29:15.761Z,14.60
2019-01-13T11:31:44.369Z,14.70
2019-01-13T11:34:12.979Z,14.80
2019-01-13T11:36:41.794Z,14.70
2019-01-13T11:39:10.917Z,14.70
2019-01-13T11:41:39.582Z,14.70
2019-01-13T11:44:08.223Z,14.70
2019-01-13T11:46:36.806Z,14.70
2019-01-13T11:49:05.431Z,14.70
2019-01-13T11:51:34.078Z,14.60
2019-01-13T11:54:02.695Z,14.70
2019-01-13T11:56:31.304Z,14.70
2019-01-13T11:58:59.970Z,14.70
2019-01-13T12:01:28.555Z,14.70
2019-01-13T12:03:57.138Z,14.70
2019-01-13T12:06:25.781Z,14.70
2019-01-13T12:08:54.413Z,14.70
2019-01-13T12:11:23.050Z,14.70
2019-01-13T12:13:51.627Z,14.80
2019-01-13T12:16:20.383Z,14.80
2019-01-13T12:18:49.742Z,14.80
2019-01-13T12:21:18.480Z,14.80
2019-01-13T12:23:47.135Z,14.80
2019-01-13T12:26:15.904Z,14.80
2019-01-13T12:28:44.762Z,14.70
2019-01-13T12:31:13.490Z,14.70
2019-01-13T12:33:42.062Z,14.70
2019-01-13T12:36:10.965Z,14.70
2019-01-13T12:38:39.708Z,14.70
2019-01-13T12:41:08.502Z,14.70
2019-01-13T12:43:37.070Z,14.70
2019-01-13T12:46:05.734Z,14.70
2019-01-13T12:48:34.419Z,14.70
2019-01-13T12:51:03.166Z,14.80
2019-01-13T12:53:31.848Z,14.70
2019-01-13T12:56:00.765Z,14.70
2019-01-13T12:58:29.418Z,14.80
2019-01-13T13:00:58.050Z,14.30
2019-01-13T13:03:31.693Z,13.90
2019-01-13T13:05:56.999Z,13.50
2019-01-13T13:08:26.064Z,13.30
2019-01-13T13:10:55.940Z,13.20
2019-01-13T13:13:26.412Z,13.00
2019-01-13T13:15:55.043Z,13.00
2019-01-13T13:18:23.631Z,12.90
2019-01-13T13:20:52.530Z,12.70
2019-01-13T13:23:22.153Z,12.90
2019-01-13T13:25:51.005Z,13.60
2019-01-13T13:28:19.871Z,14.00
2019-01-13T13:30:48.783Z,14.20
2019-01-13T13:33:17.394Z,14.30
2019-01-13T13:35:46.107Z,14.40
2019-01-13T13:38:14.838Z,14.40
2019-01-13T13:40:43.600Z,14.50
2019-01-13T13:43:12.296Z,14.50
2019-01-13T13:45:41.277Z,14.50
2019-01-13T13:48:10.088Z,14.60
2019-01-13T13:50:39.126Z,14.60
2019-01-13T13:53:08.070Z,14.70
2019-01-13T13:55:37.145Z,14.60
2019-01-13T13:58:06.227Z,14.60
2019-01-13T14:00:36.352Z,14.70
2019-01-13T14:03:05.515Z,14.60
2019-01-13T14:05:34.258Z,14.70
2019-01-13T14:08:02.912Z,14.70
2019-01-13T14:10:42.256Z,14.70
2019-01-13T14:13:11.052Z,14.70
2019-01-13T14:15:39.793Z,14.80
2019-01-13T14:18:08.649Z,14.80
2019-01-13T14:20:38.255Z,14.70
2019-01-13T14:23:06.952Z,14.70
2019-01-13T14:25:35.699Z,14.80
2019-01-13T14:28:04.412Z,14.80
2019-01-13T14:30:33.413Z,15.60
2019-01-13T14:33:02.259Z,16.60
2019-01-13T14:35:33.981Z,16.80
2019-01-13T14:38:02.699Z,15.50
2019-01-13T14:40:31.678Z,14.80
2019-01-13T14:43:00.600Z,14.10
2019-01-13T14:45:29.299Z,13.90
2019-01-13T14:47:57.987Z,13.60
2019-01-13T14:50:35.799Z,13.40
2019-01-13T14:53:07.237Z,13.40
2019-01-13T14:55:35.940Z,13.40
2019-01-13T14:58:04.899Z,13.10
2019-01-13T15:00:35.061Z,13.10
2019-01-13T15:03:04.334Z,13.00
2019-01-13T15:05:33.521Z,12.90
2019-01-13T15:08:02.642Z,12.90
2019-01-13T15:10:31.688Z,13.00
2019-01-13T15:13:01.365Z,13.00
2019-01-13T15:15:30.308Z,12.90
2019-01-13T15:18:01.821Z,12.90
2019-01-13T15:20:30.945Z,13.00
2019-01-13T15:22:59.952Z,13.10
2019-01-13T15:25:31.493Z,13.10
2019-01-13T15:28:00.258Z,12.80
2019-01-13T15:30:36.603Z,12.70
2019-01-13T15:33:08.310Z,12.80
2019-01-13T15:35:40.189Z,12.70
2019-01-13T15:38:14.210Z,12.60
2019-01-13T15:40:40.429Z,12.80
2019-01-13T15:43:09.372Z,13.10
2019-01-13T15:45:38.461Z,13.00
2019-01-13T15:48:07.584Z,13.20
2019-01-13T15:50:36.558Z,13.20
2019-01-13T15:53:05.703Z,13.20
2019-01-13T15:55:35.015Z,13.30
2019-01-13T15:58:03.787Z,13.40
2019-01-13T16:00:34.454Z,13.60
2019-01-13T16:03:03.147Z,13.40
2019-01-13T16:05:31.935Z,13.30
2019-01-13T16:08:02.887Z,13.00
2019-01-13T16:10:31.627Z,12.90
2019-01-13T16:13:00.362Z,12.70
2019-01-13T16:15:34.160Z,12.70
2019-01-13T16:17:59.485Z,12.80
2019-01-13T16:20:33.664Z,12.70
2019-01-13T16:23:02.410Z,12.80
2019-01-13T16:25:31.160Z,12.70
2019-01-13T16:28:00.147Z,12.60
2019-01-13T16:30:29.202Z,12.50
2019-01-13T16:32:57.900Z,12.50
2019-01-13T16:35:26.656Z,12.60
2019-01-13T16:37:55.358Z,12.60
2019-01-13T16:40:25.181Z,12.60
2019-01-13T16:42:54.168Z,12.70
2019-01-13T16:45:23.302Z,12.60
2019-01-13T16:47:51.990Z,12.40
2019-01-13T16:50:25.403Z,12.50
2019-01-13T16:52:56.224Z,12.50
2019-01-13T16:55:25.838Z,12.50
2019-01-13T16:57:54.847Z,12.60
2019-01-13T17:00:28.164Z,12.50
2019-01-13T17:02:57.204Z,12.40
2019-01-13T17:05:26.027Z,12.40
2019-01-13T17:07:55.135Z,12.30
2019-01-13T17:10:24.859Z,12.20
2019-01-13T17:12:54.636Z,12.30
2019-01-13T17:15:28.750Z,12.60
2019-01-13T17:18:01.070Z,12.80
2019-01-13T17:20:29.796Z,12.80
2019-01-13T17:22:58.899Z,12.70
2019-01-13T17:25:28.993Z,12.60
2019-01-13T17:27:57.658Z,12.50
2019-01-13T17:30:28.415Z,12.40
2019-01-13T17:32:58.420Z,12.40
2019-01-13T17:35:27.224Z,12.40
2019-01-13T17:37:56.198Z,12.50
2019-01-13T17:40:25.775Z,12.60
2019-01-13T17:42:55.047Z,12.70
2019-01-13T17:45:28.824Z,12.50
2019-01-13T17:47:58.481Z,12.50
2019-01-13T17:50:27.340Z,12.50
2019-01-13T17:52:56.188Z,12.30
2019-01-13T17:55:26.622Z,12.40
2019-01-13T17:57:57.786Z,12.30
2019-01-13T18:00:35.992Z,12.30
2019-01-13T18:03:07.196Z,12.20
2019-01-13T18:05:36.069Z,12.10
2019-01-13T18:08:04.748Z,12.10
2019-01-13T18:10:33.728Z,12.30
2019-01-13T18:13:02.441Z,12.40
2019-01-13T18:15:31.132Z,12.20
2019-01-13T18:18:00.932Z,12.10
2019-01-13T18:20:29.965Z,12.30
2019-01-13T18:22:59.999Z,12.30
2019-01-13T18:25:29.591Z,12.40
2019-01-13T18:28:02.984Z,12.40
2019-01-13T18:30:31.849Z,12.50
2019-01-13T18:33:00.693Z,12.70
2019-01-13T18:35:29.427Z,12.50
2019-01-13T18:37:58.482Z,12.40
2019-01-13T18:40:27.540Z,12.20
2019-01-13T18:42:57.393Z,12.10
2019-01-13T18:45:26.283Z,12.00
2019-01-13T18:47:55.263Z,12.10
2019-01-13T18:50:23.984Z,12.10
2019-01-13T18:52:56.462Z,12.20
2019-01-13T18:55:25.212Z,12.00
2019-01-13T18:57:55.050Z,12.10
2019-01-13T19:00:24.524Z,12.00
2019-01-13T19:02:53.563Z,12.00
2019-01-13T19:05:23.131Z,12.00
2019-01-13T19:07:51.867Z,12.10
2019-01-13T19:10:42.425Z,12.00
2019-01-13T19:13:27.787Z,12.00
2019-01-13T19:15:59.824Z,11.80
2019-01-13T19:18:36.990Z,11.80
2019-01-13T19:21:08.959Z,12.00
2019-01-13T19:23:38.000Z,12.00
2019-01-13T19:26:06.934Z,11.90
2019-01-13T19:28:35.686Z,11.90
2019-01-13T19:31:04.439Z,11.80
2019-01-13T19:33:33.179Z,11.90
2019-01-13T19:36:02.171Z,11.80
2019-01-13T19:38:30.925Z,12.00
2019-01-13T19:41:00.705Z,12.00
2019-01-13T19:43:29.557Z,12.10
2019-01-13T19:45:58.346Z,12.00
2019-01-13T19:48:27.133Z,11.90
2019-01-13T19:50:55.893Z,12.10
2019-01-13T19:53:24.727Z,12.10
2019-01-13T19:55:53.719Z,12.00
2019-01-13T19:58:22.429Z,12.10
2019-01-13T20:00:55.379Z,12.20
2019-01-13T20:03:24.116Z,12.30
2019-01-13T20:05:53.025Z,12.20
2019-01-13T20:08:21.712Z,12.20
2019-01-13T20:10:50.684Z,12.10
2019-01-13T20:13:19.662Z,11.90
2019-01-13T20:15:50.573Z,12.10
2019-01-13T20:18:19.283Z,12.10
2019-01-13T20:20:48.109Z,12.00
2019-01-13T20:23:17.079Z,11.80
2019-01-13T20:25:46.090Z,11.90
2019-01-13T20:28:14.803Z,11.90
2019-01-13T20:30:43.568Z,11.90
2019-01-13T20:33:12.240Z,11.90
2019-01-13T20:35:42.061Z,11.80
2019-01-13T20:38:10.993Z,11.70
2019-01-13T20:40:39.866Z,11.90
2019-01-13T20:43:08.896Z,12.00
2019-01-13T20:45:41.923Z,11.90
2019-01-13T20:48:10.627Z,12.00
2019-01-13T20:50:39.379Z,12.00
2019-01-13T20:53:08.367Z,12.00
2019-01-13T20:55:37.378Z,12.00
2019-01-13T20:58:06.107Z,12.00
2019-01-13T21:00:35.066Z,11.80
2019-01-13T21:03:03.775Z,11.90
2019-01-13T21:05:33.766Z,12.00
2019-01-13T21:08:02.879Z,12.00
2019-01-13T21:10:31.647Z,12.10
2019-01-13T21:13:00.319Z,12.20
2019-01-13T21:15:31.199Z,12.10
2019-01-13T21:17:59.955Z,12.10
2019-01-13T21:20:28.735Z,12.20
2019-01-13T21:22:57.638Z,12.20
2019-01-13T21:25:26.409Z,12.20
2019-01-13T21:27:57.308Z,12.20
2019-01-13T21:30:27.237Z,12.10
2019-01-13T21:32:56.185Z,12.30
2019-01-13T21:35:24.910Z,12.20
2019-01-13T21:37:53.872Z,12.10
2019-01-13T21:40:22.596Z,11.90
2019-01-13T21:42:51.570Z,11.90
2019-01-13T21:45:20.735Z,11.80
2019-01-13T21:47:50.013Z,11.90
2019-01-13T21:50:20.638Z,12.00
2019-01-13T21:52:49.296Z,12.20
2019-01-13T21:55:18.274Z,12.30
2019-01-13T21:57:47.008Z,12.00
2019-01-13T22:00:21.351Z,11.90
2019-01-13T22:02:50.322Z,11.70
2019-01-13T22:05:19.093Z,11.70
2019-01-13T22:07:47.995Z,11.60
2019-01-13T22:10:18.235Z,11.80
2019-01-13T22:12:46.892Z,11.80
2019-01-13T22:15:16.732Z,11.80
2019-01-13T22:17:45.605Z,11.70
2019-01-13T22:20:16.668Z,11.60
2019-01-13T22:22:45.677Z,11.60
2019-01-13T22:25:14.428Z,11.70
2019-01-13T22:27:43.430Z,11.80
2019-01-13T22:30:17.250Z,11.90
2019-01-13T22:32:45.955Z,11.80
2019-01-13T22:35:14.648Z,12.10
2019-01-13T22:37:43.356Z,12.20
2019-01-13T22:40:13.806Z,12.10
2019-01-13T22:42:42.595Z,12.00
2019-01-13T22:45:13.120Z,11.90
2019-01-13T22:47:42.046Z,11.80
2019-01-13T22:50:11.699Z,11.90
2019-01-13T22:52:40.668Z,11.90
2019-01-13T22:55:09.497Z,12.00
2019-01-13T22:57:38.473Z,12.20
2019-01-13T23:00:32.343Z,12.20
2019-01-13T23:03:01.028Z,12.00
2019-01-13T23:05:29.747Z,12.10
2019-01-13T23:07:58.455Z,12.20
2019-01-13T23:10:27.511Z,11.90
2019-01-13T23:12:56.933Z,11.80
2019-01-13T23:15:25.814Z,11.80
2019-01-13T23:17:54.551Z,11.70
2019-01-13T23:20:23.311Z,11.90
2019-01-13T23:22:52.550Z,11.70
2019-01-13T23:25:21.783Z,11.90
2019-01-13T23:27:50.462Z,11.90
2019-01-13T23:30:19.142Z,11.90
2019-01-13T23:32:47.851Z,11.90
2019-01-13T23:35:16.523Z,11.90
2019-01-13T23:37:45.236Z,12.00
2019-01-13T23:40:13.946Z,11.80
2019-01-13T23:42:44.989Z,11.80
2019-01-13T23:45:13.756Z,11.90
2019-01-13T23:47:45.262Z,11.70
2019-01-13T23:50:13.996Z,11.70
2019-01-13T23:52:43.036Z,11.60
2019-01-13T23:55:11.976Z,11.70
2019-01-13T23:57:40.682Z,11.80
